Time;durP1;ratioP1;P1;durP2;ratioP2;P2;SDS_P1;SDS_P2;PMS_P1;PMS_P2;Temp;Humidity;BMP_temperature;BMP_pressure;BME280_temperature;BME280_humidity;BME280_pressure;Samples;Min_cycle;Max_cycle;Signal;HPM_P1;HPM_P2
2023/03/07 00:01:30;;;;;;;143.15;75.60;;;6.00;99.90;;;;;;5033175;28;20486;-82
2023/03/07 00:04:02;;;;;;;138.73;75.28;;;6.00;99.90;;;;;;5034566;28;20568;-82
2023/03/07 00:06:31;;;;;;;136.25;75.60;;;6.00;99.90;;;;;;5033615;28;20041;-82
2023/03/07 00:09:00;;;;;;;114.38;62.33;;;6.10;99.90;;;;;;5030594;28;20053;-83
2023/03/07 00:11:28;;;;;;;119.72;64.55;;;6.10;99.90;;;;;;5021873;28;20458;-83
2023/03/07 00:13:56;;;;;;;125.30;69.68;;;6.10;99.90;;;;;;5032317;28;20522;-82
2023/03/07 00:16:25;;;;;;;118.53;64.00;;;6.10;99.90;;;;;;5032646;28;20092;-82
2023/03/07 00:18:55;;;;;;;110.25;61.08;;;6.00;99.90;;;;;;5031189;28;20038;-81
2023/03/07 00:21:22;;;;;;;96.35;54.35;;;6.00;99.90;;;;;;5032633;28;20407;-82
2023/03/07 00:23:52;;;;;;;99.07;55.40;;;5.90;99.90;;;;;;5025217;28;20046;-80
2023/03/07 00:26:22;;;;;;;82.63;45.95;;;5.90;99.90;;;;;;5045858;28;20117;-82
2023/03/07 00:28:51;;;;;;;91.30;52.05;;;6.00;99.90;;;;;;5050576;28;20030;-80
2023/03/07 00:31:20;;;;;;;92.28;50.60;;;6.00;99.90;;;;;;5032453;28;20049;-81
2023/03/07 00:33:47;;;;;;;100.55;53.65;;;6.10;99.90;;;;;;5034232;28;20065;-80
2023/03/07 00:36:18;;;;;;;118.78;63.28;;;6.10;99.90;;;;;;5045310;28;20056;-81
2023/03/07 00:38:46;;;;;;;124.05;71.57;;;6.10;99.90;;;;;;5034888;28;20140;-82
2023/03/07 00:41:16;;;;;;;133.35;73.82;;;6.10;99.90;;;;;;5033798;28;20405;-81
2023/03/07 00:43:44;;;;;;;107.10;60.42;;;6.10;99.90;;;;;;5031991;28;20129;-81
2023/03/07 00:46:11;;;;;;;109.80;60.45;;;6.10;99.90;;;;;;5031140;28;20057;-82
2023/03/07 00:48:40;;;;;;;124.65;70.70;;;6.10;99.90;;;;;;5030863;28;20072;-81
2023/03/07 00:51:09;;;;;;;118.68;63.58;;;6.00;99.90;;;;;;5031325;28;20049;-84
2023/03/07 00:53:39;;;;;;;118.60;67.07;;;6.00;1.00;;;;;;5037686;28;20038;-81
2023/03/07 00:56:12;;;;;;;144.23;82.15;;;6.10;99.90;;;;;;5041537;28;20054;-80
2023/03/07 00:58:39;;;;;;;139.13;79.47;;;6.00;1.00;;;;;;5039591;28;20045;-81
2023/03/07 01:01:09;;;;;;;138.93;80.78;;;6.00;1.00;;;;;;5032606;28;20148;-83
2023/03/07 01:03:38;;;;;;;131.90;73.82;;;6.00;1.00;;;;;;5030975;28;20042;-83
2023/03/07 01:06:08;;;;;;;101.40;58.60;;;6.00;1.00;;;;;;5029156;28;20041;-83
2023/03/07 01:08:36;;;;;;;101.63;56.95;;;6.00;1.00;;;;;;5030766;28;20489;-82
2023/03/07 01:11:06;;;;;;;91.60;56.08;;;6.00;1.00;;;;;;5031133;28;20049;-82
2023/03/07 01:13:35;;;;;;;101.68;58.53;;;5.90;1.00;;;;;;5031078;28;20168;-81
2023/03/07 01:16:10;;;;;;;88.57;53.45;;;5.80;1.00;;;;;;5032027;28;20040;-82
2023/03/07 01:18:38;;;;;;;91.87;52.63;;;5.70;1.00;;;;;;5031081;28;20050;-83
2023/03/07 01:21:14;;;;;;;82.80;51.40;;;5.60;1.00;;;;;;5029676;28;20299;-82
2023/03/07 01:23:43;;;;;;;85.80;54.28;;;5.50;1.00;;;;;;5030662;28;20046;-82
2023/03/07 01:26:17;;;;;;;75.05;45.65;;;5.40;99.90;;;;;;5030804;28;20046;-82
2023/03/07 01:28:45;;;;;;;69.15;45.88;;;5.30;1.00;;;;;;5031769;28;20045;-83
2023/03/07 01:31:13;;;;;;;73.57;46.25;;;5.30;1.00;;;;;;5034132;28;20068;-80
2023/03/07 01:33:42;;;;;;;84.43;52.15;;;5.20;1.00;;;;;;5030987;28;20559;-83
2023/03/07 01:36:18;;;;;;;117.13;69.68;;;5.20;1.00;;;;;;5031138;28;20073;-83
2023/03/07 01:38:47;;;;;;;117.53;71.22;;;5.20;1.00;;;;;;5046609;28;20048;-81
2023/03/07 01:41:17;;;;;;;125.55;73.40;;;5.20;99.90;;;;;;5035385;28;20061;-83
2023/03/07 01:43:46;;;;;;;124.53;75.03;;;5.20;1.00;;;;;;5056313;28;20044;-82
2023/03/07 01:46:54;;;;;;;133.50;82.57;;;5.10;1.00;;;;;;5055808;28;20046;-83
2023/03/07 01:49:30;;;;;;;123.60;76.72;;;5.00;1.00;;;;;;5047780;28;20064;-82
2023/03/07 01:52:06;;;;;;;134.88;80.13;;;5.00;1.00;;;;;;5031396;28;20045;-83
2023/03/07 01:54:38;;;;;;;125.03;74.47;;;5.00;1.00;;;;;;5029775;28;20048;-81
2023/03/07 01:57:08;;;;;;;120.75;70.22;;;4.90;1.00;;;;;;5028794;28;20516;-82
2023/03/07 01:59:43;;;;;;;123.40;71.50;;;4.90;1.00;;;;;;5030065;28;20081;-82
2023/03/07 02:02:15;;;;;;;127.55;71.07;;;5.00;1.00;;;;;;5029062;28;20049;-84
2023/03/07 02:04:48;;;;;;;124.38;70.72;;;5.00;1.00;;;;;;5030784;28;20042;-82
2023/03/07 02:07:17;;;;;;;131.32;75.63;;;5.00;1.00;;;;;;5028925;28;20048;-82
2023/03/07 02:09:48;;;;;;;135.70;73.78;;;5.00;1.00;;;;;;5030286;28;20050;-83
2023/03/07 02:12:17;;;;;;;110.07;61.25;;;5.00;1.00;;;;;;5030046;28;20048;-83
2023/03/07 02:14:47;;;;;;;114.05;65.88;;;5.00;1.00;;;;;;5030072;28;20042;-83
2023/03/07 02:17:14;;;;;;;111.32;61.08;;;5.00;1.00;;;;;;5029693;28;20136;-83
2023/03/07 02:19:56;;;;;;;111.10;63.50;;;5.00;1.00;;;;;;5030229;28;20465;-81
2023/03/07 02:22:26;;;;;;;104.35;60.25;;;5.00;1.00;;;;;;5030798;28;20037;-82
2023/03/07 02:24:56;;;;;;;103.82;58.22;;;5.00;1.00;;;;;;5028932;28;20122;-84
2023/03/07 02:27:26;;;;;;;98.45;57.70;;;4.90;1.00;;;;;;5029115;28;20049;-84
2023/03/07 02:29:54;;;;;;;100.75;55.78;;;4.90;1.00;;;;;;5035183;28;20505;-83
2023/03/07 02:32:21;;;;;;;95.00;54.28;;;4.90;1.00;;;;;;5035571;28;20042;-83
2023/03/07 02:34:49;;;;;;;90.18;49.92;;;4.80;1.00;;;;;;5049008;28;20068;-81
2023/03/07 02:37:25;;;;;;;86.10;47.80;;;4.80;1.00;;;;;;5047810;28;20048;-80
2023/03/07 02:39:54;;;;;;;90.35;52.40;;;4.70;1.00;;;;;;5030743;28;20422;-82
2023/03/07 02:42:25;;;;;;;91.18;52.08;;;4.70;1.00;;;;;;5030184;28;20037;-81
2023/03/07 02:45:02;;;;;;;87.88;50.70;;;4.50;1.00;;;;;;5029474;28;20055;-81
2023/03/07 02:47:33;;;;;;;85.25;48.55;;;4.50;1.00;;;;;;5028152;28;20054;-82
2023/03/07 02:50:01;;;;;;;94.35;53.88;;;4.40;1.00;;;;;;5029646;28;20041;-82
2023/03/07 02:52:30;;;;;;;100.03;57.13;;;4.30;1.00;;;;;;5030110;28;20052;-82
2023/03/07 02:54:58;;;;;;;101.07;57.53;;;4.30;99.90;;;;;;5029162;28;20199;-84
2023/03/07 02:57:29;;;;;;;101.80;57.00;;;4.30;99.90;;;;;;5028928;28;20049;-84
2023/03/07 02:59:56;;;;;;;92.18;52.63;;;4.30;99.90;;;;;;5031393;28;20120;-84
2023/03/07 03:02:25;;;;;;;97.53;53.92;;;4.20;99.90;;;;;;5031127;28;20033;-84
2023/03/07 03:04:52;;;;;;;95.25;53.58;;;4.20;99.90;;;;;;5030022;28;20046;-83
2023/03/07 03:07:22;;;;;;;84.47;48.58;;;4.10;1.00;;;;;;5029724;28;20049;-82
2023/03/07 03:09:50;;;;;;;93.03;52.08;;;4.10;1.00;;;;;;5031630;28;20141;-83
2023/03/07 03:12:18;;;;;;;81.20;46.40;;;4.10;1.00;;;;;;5030839;28;20053;-83
2023/03/07 03:14:45;;;;;;;77.85;43.53;;;4.10;1.00;;;;;;5034152;28;20049;-82
2023/03/07 03:17:13;;;;;;;73.00;42.55;;;4.10;1.00;;;;;;5037758;28;20072;-82
2023/03/07 03:19:42;;;;;;;72.20;41.42;;;4.00;1.00;;;;;;5051311;28;20064;-83
2023/03/07 03:22:10;;;;;;;83.30;49.70;;;4.00;99.90;;;;;;5057660;28;20036;-82
2023/03/07 03:24:42;;;;;;;75.13;44.85;;;4.00;1.00;;;;;;5056105;28;20026;-83
2023/03/07 03:27:13;;;;;;;78.97;47.42;;;3.90;1.00;;;;;;5056031;28;20049;-81
2023/03/07 03:29:43;;;;;;;72.60;45.78;;;4.00;1.00;;;;;;5052913;28;20041;-82
2023/03/07 03:32:11;;;;;;;71.95;46.08;;;4.00;1.00;;;;;;5035103;28;20060;-81
2023/03/07 03:34:41;;;;;;;79.22;49.75;;;4.00;1.00;;;;;;5032121;28;20049;-82
2023/03/07 03:37:09;;;;;;;74.88;48.20;;;4.00;1.00;;;;;;5031887;28;20049;-82
2023/03/07 03:39:37;;;;;;;72.80;46.50;;;4.10;1.00;;;;;;5032051;28;20067;-82
2023/03/07 03:42:05;;;;;;;76.05;47.67;;;4.10;1.00;;;;;;5033427;28;20055;-81
2023/03/07 03:44:33;;;;;;;78.45;50.47;;;4.10;1.00;;;;;;5033995;28;20101;-84
2023/03/07 03:47:00;;;;;;;83.63;52.03;;;4.10;99.90;;;;;;5032126;28;20452;-83
2023/03/07 03:49:28;;;;;;;80.47;51.72;;;4.00;99.90;;;;;;5032161;28;20636;-82
2023/03/07 03:51:57;;;;;;;80.13;49.65;;;4.00;99.90;;;;;;5033004;28;20050;-83
2023/03/07 03:54:25;;;;;;;75.63;46.45;;;3.90;99.90;;;;;;5016960;28;20151;-82
2023/03/07 03:56:54;;;;;;;72.82;44.60;;;3.80;99.90;;;;;;5053648;28;20033;-81
2023/03/07 03:59:22;;;;;;;73.82;44.30;;;3.70;99.90;;;;;;5051173;28;20053;-81
2023/03/07 04:01:49;;;;;;;85.45;49.25;;;3.70;1.00;;;;;;5032457;28;20405;-82
2023/03/07 04:04:19;;;;;;;81.70;47.10;;;3.70;1.00;;;;;;5031236;28;20160;-83
2023/03/07 04:06:47;;;;;;;75.85;43.97;;;3.60;1.00;;;;;;5031354;28;20068;-84
2023/03/07 04:09:16;;;;;;;84.03;47.20;;;3.60;1.00;;;;;;5031892;28;20045;-83
2023/03/07 04:11:48;;;;;;;87.15;47.20;;;3.60;1.00;;;;;;5032396;28;20053;-83
2023/03/07 04:14:16;;;;;;;68.30;40.08;;;3.60;1.00;;;;;;5031039;28;20158;-83
2023/03/07 04:16:44;;;;;;;53.08;32.00;;;3.60;1.00;;;;;;5036306;28;20048;-83
2023/03/07 04:19:18;;;;;;;65.18;39.05;;;3.60;1.00;;;;;;5040015;28;20045;-84
2023/03/07 04:21:46;;;;;;;67.80;40.30;;;3.50;1.00;;;;;;5047299;28;20113;-81
2023/03/07 04:24:17;;;;;;;67.43;40.97;;;3.50;1.00;;;;;;5048081;28;20047;-84
2023/03/07 04:26:45;;;;;;;66.30;41.13;;;3.40;1.00;;;;;;5030593;28;20071;-81
2023/03/07 04:29:13;;;;;;;60.75;35.97;;;3.40;99.90;;;;;;5032466;28;20518;-80
2023/03/07 04:31:43;;;;;;;60.85;36.22;;;3.40;99.90;;;;;;5033025;28;20046;-80
2023/03/07 04:34:11;;;;;;;61.17;38.33;;;3.30;99.90;;;;;;5034025;28;20060;-84
2023/03/07 04:36:39;;;;;;;62.63;37.67;;;3.30;99.90;;;;;;5037690;28;20046;-81
2023/03/07 04:39:06;;;;;;;59.90;35.05;;;3.10;68.10;;;;;;5032350;28;20552;-83
2023/03/07 04:41:36;;;;;;;69.22;42.30;;;3.00;99.90;;;;;;5031733;28;20049;-83
2023/03/07 04:44:08;;;;;;;73.97;45.08;;;2.90;77.40;;;;;;5031168;28;20046;-84
2023/03/07 04:46:36;;;;;;;61.17;39.35;;;2.90;1.00;;;;;;5041239;28;20045;-82
2023/03/07 04:49:03;;;;;;;64.35;41.03;;;2.90;41.30;;;;;;5030846;28;20069;-83
2023/03/07 04:51:31;;;;;;;61.17;39.88;;;3.00;1.00;;;;;;5029221;28;20069;-83
2023/03/07 04:53:59;;;;;;;66.95;40.10;;;2.90;99.90;;;;;;5039734;28;20080;-82
2023/03/07 04:56:27;;;;;;;79.10;46.47;;;2.90;99.90;;;;;;5066904;28;20090;-84
2023/03/07 04:58:57;;;;;;;77.82;46.95;;;2.90;1.00;;;;;;5054846;28;20072;-82
2023/03/07 05:01:24;;;;;;;75.78;46.17;;;2.80;1.00;;;;;;5046933;28;20029;-82
2023/03/07 05:03:52;;;;;;;71.15;42.70;;;2.80;1.00;;;;;;5034380;28;20046;-83
2023/03/07 05:06:23;;;;;;;62.67;38.88;;;2.80;1.00;;;;;;5032315;28;20045;-84
2023/03/07 05:08:52;;;;;;;65.15;39.10;;;2.70;99.90;;;;;;5041377;28;20049;-84
2023/03/07 05:11:20;;;;;;;60.50;38.72;;;2.70;99.90;;;;;;5044242;28;20339;-84
2023/03/07 05:13:49;;;;;;;62.35;39.00;;;2.70;1.00;;;;;;5016749;28;20049;-84
2023/03/07 05:16:21;;;;;;;69.25;42.85;;;2.70;99.90;;;;;;5031286;28;20508;-83
2023/03/07 05:18:49;;;;;;;76.97;46.78;;;2.70;1.00;;;;;;5030981;28;20041;-83
2023/03/07 05:21:17;;;;;;;77.72;49.60;;;2.70;99.90;;;;;;5031045;28;20037;-84
2023/03/07 05:23:45;;;;;;;73.88;47.50;;;2.70;11.00;;;;;;5030846;28;20045;-84
2023/03/07 05:26:14;;;;;;;73.18;45.65;;;2.70;99.90;;;;;;5029975;28;20065;-83
2023/03/07 05:28:42;;;;;;;80.63;46.22;;;2.80;1.00;;;;;;5031184;28;20042;-83
2023/03/07 05:31:09;;;;;;;72.90;44.50;;;2.80;99.90;;;;;;5032098;28;20049;-83
2023/03/07 05:33:41;;;;;;;84.65;48.00;;;2.80;1.00;;;;;;5030638;28;20157;-83
2023/03/07 05:36:09;;;;;;;74.78;42.85;;;2.80;1.00;;;;;;5030747;28;20077;-85
2023/03/07 05:38:37;;;;;;;80.18;43.55;;;2.90;99.90;;;;;;5031446;28;20398;-82
2023/03/07 05:41:05;;;;;;;91.63;48.88;;;2.90;27.90;;;;;;5029134;28;20107;-83
2023/03/07 05:43:33;;;;;;;94.90;53.38;;;3.00;1.00;;;;;;5031551;28;20071;-84
2023/03/07 05:46:00;;;;;;;78.25;46.30;;;3.10;99.90;;;;;;5031751;28;20136;-83
2023/03/07 05:48:28;;;;;;;86.07;45.22;;;3.30;1.00;;;;;;5030315;28;20137;-83
2023/03/07 05:51:00;;;;;;;72.35;42.20;;;3.50;1.00;;;;;;5030891;28;20045;-83
2023/03/07 05:53:31;;;;;;;79.22;42.70;;;3.70;1.00;;;;;;5032499;28;20049;-85
2023/03/07 05:55:59;;;;;;;80.05;46.70;;;3.90;1.00;;;;;;5037618;28;20042;-82
2023/03/07 05:58:29;;;;;;;77.70;47.10;;;4.10;1.00;;;;;;5036292;28;20500;-83
2023/03/07 06:00:56;;;;;;;82.40;47.00;;;4.30;99.90;;;;;;5048659;28;20034;-83
2023/03/07 06:03:24;;;;;;;103.35;56.42;;;4.50;1.00;;;;;;5048539;28;20034;-84
2023/03/07 06:05:57;;;;;;;83.55;49.25;;;4.60;1.00;;;;;;5049268;28;20049;-83
2023/03/07 06:08:26;;;;;;;73.20;43.72;;;4.60;1.00;;;;;;5033424;28;20045;-83
2023/03/07 06:10:55;;;;;;;89.32;51.60;;;4.80;1.00;;;;;;5034007;28;20046;-84
2023/03/07 06:13:25;;;;;;;83.07;49.45;;;4.90;1.00;;;;;;5014472;28;20070;-82
2023/03/07 06:15:53;;;;;;;86.00;47.30;;;4.90;99.90;;;;;;5016227;28;20434;-85
2023/03/07 06:18:24;;;;;;;82.60;48.22;;;4.90;99.90;;;;;;5030601;28;20143;-82
2023/03/07 06:20:57;;;;;;;97.35;53.15;;;4.90;99.90;;;;;;5036578;28;20493;-83
2023/03/07 06:23:27;;;;;;;94.10;54.20;;;4.90;99.90;;;;;;5029191;28;20048;-82
2023/03/07 06:25:55;;;;;;;102.57;58.90;;;4.90;99.90;;;;;;5031033;28;20056;-84
2023/03/07 06:28:23;;;;;;;93.18;54.85;;;4.90;99.90;;;;;;5031158;28;20534;-82
2023/03/07 06:30:53;;;;;;;97.65;56.15;;;4.90;99.90;;;;;;5038725;28;20060;-84
2023/03/07 06:33:21;;;;;;;104.55;60.33;;;4.90;99.90;;;;;;5042664;28;20148;-82
2023/03/07 06:35:49;;;;;;;113.47;65.45;;;4.80;99.90;;;;;;5036094;28;20044;-84
2023/03/07 06:38:17;;;;;;;113.00;65.55;;;4.70;99.90;;;;;;5030717;28;20049;-82
2023/03/07 06:40:55;;;;;;;114.95;66.70;;;4.70;99.90;;;;;;5050468;28;20041;-83
2023/03/07 06:43:25;;;;;;;115.72;68.28;;;4.70;99.90;;;;;;5032129;28;20128;-84
2023/03/07 06:45:52;;;;;;;127.63;72.70;;;4.70;99.90;;;;;;5030116;28;20055;-82
2023/03/07 06:48:22;;;;;;;145.23;84.57;;;4.70;99.90;;;;;;5029628;28;20065;-83
2023/03/07 06:50:50;;;;;;;134.52;80.25;;;4.80;99.90;;;;;;5029783;28;20084;-82
2023/03/07 06:53:21;;;;;;;140.93;81.55;;;4.90;99.90;;;;;;5030516;28;20041;-83
2023/03/07 06:55:53;;;;;;;144.60;85.80;;;4.90;99.90;;;;;;5030199;28;20055;-83
2023/03/07 06:58:20;;;;;;;140.57;84.47;;;4.90;99.90;;;;;;5029579;28;20697;-83
2023/03/07 07:00:48;;;;;;;131.20;76.82;;;4.90;99.90;;;;;;5031911;28;20087;-83
2023/03/07 07:03:23;;;;;;;101.47;56.22;;;4.90;99.90;;;;;;5029864;28;20484;-82
2023/03/07 07:05:52;;;;;;;97.28;58.17;;;4.90;99.90;;;;;;5026053;28;20453;-82
2023/03/07 07:08:20;;;;;;;112.85;66.00;;;5.00;99.90;;;;;;5028189;28;20072;-81
2023/03/07 07:10:47;;;;;;;124.18;69.40;;;5.10;99.90;;;;;;5019966;28;20318;-82
2023/03/07 07:13:17;;;;;;;140.75;81.00;;;5.30;99.90;;;;;;5028424;28;20063;-80
2023/03/07 07:15:45;;;;;;;125.80;74.40;;;5.50;99.90;;;;;;5030477;28;20099;-82
2023/03/07 07:18:13;;;;;;;135.07;80.30;;;5.90;99.90;;;;;;5030842;28;20052;-83
2023/03/07 07:20:41;;;;;;;148.52;86.65;;;6.30;85.20;;;;;;5031320;28;20159;-83
2023/03/07 07:23:09;;;;;;;127.13;74.30;;;6.90;1.00;;;;;;5033195;28;20038;-81
2023/03/07 07:25:38;;;;;;;96.78;56.17;;;7.40;1.00;;;;;;5048944;28;20045;-81
2023/03/07 07:28:08;;;;;;;94.00;56.55;;;8.00;1.00;;;;;;5051497;28;20084;-81
2023/03/07 07:30:36;;;;;;;79.00;46.08;;;8.30;1.00;;;;;;5030798;28;20046;-82
2023/03/07 07:33:04;;;;;;;66.22;41.25;;;8.70;1.00;;;;;;5029718;28;20073;-83
2023/03/07 07:35:33;;;;;;;60.58;39.85;;;9.00;1.00;;;;;;5030996;28;20396;-83
2023/03/07 07:38:02;;;;;;;57.00;35.80;;;9.30;1.00;;;;;;5030410;28;20115;-84
2023/03/07 07:40:29;;;;;;;62.38;36.78;;;9.50;1.00;;;;;;5033132;28;20038;-82
2023/03/07 07:42:57;;;;;;;63.63;37.78;;;9.50;1.00;;;;;;5031188;28;20048;-81
2023/03/07 07:45:44;;;;;;;66.50;41.78;;;9.60;1.00;;;;;;5045451;28;20064;-82
2023/03/07 07:48:16;;;;;;;61.80;39.17;;;9.50;1.00;;;;;;5050031;28;20060;-80
2023/03/07 07:50:45;;;;;;;64.20;39.38;;;9.30;1.00;;;;;;5045508;28;20053;-83
2023/03/07 07:53:15;;;;;;;68.85;40.38;;;9.40;1.00;;;;;;5014725;28;20045;-82
2023/03/07 07:55:44;;;;;;;70.50;42.95;;;9.60;1.00;;;;;;5033213;28;20069;-81
2023/03/07 07:58:14;;;;;;;60.63;38.58;;;9.80;1.00;;;;;;5033638;28;20096;-81
2023/03/07 08:00:45;;;;;;;59.72;38.08;;;9.80;1.00;;;;;;5033870;28;20060;-82
2023/03/07 08:03:12;;;;;;;68.32;39.92;;;9.90;1.00;;;;;;5035822;28;20045;-83
2023/03/07 08:05:44;;;;;;;59.08;37.03;;;10.20;1.00;;;;;;5033490;28;20246;-83
2023/03/07 08:08:13;;;;;;;54.60;35.63;;;10.30;1.00;;;;;;5035562;28;20107;-81
2023/03/07 08:10:43;;;;;;;48.08;29.70;;;10.50;1.00;;;;;;5040584;28;20486;-83
2023/03/07 08:13:12;;;;;;;47.08;29.75;;;10.80;1.00;;;;;;5036344;28;20049;-85
2023/03/07 08:15:40;;;;;;;42.20;24.77;;;11.00;1.00;;;;;;5038210;28;20544;-83
2023/03/07 08:18:11;;;;;;;45.65;26.48;;;11.20;1.00;;;;;;5038922;28;20045;-84
2023/03/07 08:20:40;;;;;;;33.80;21.02;;;11.50;1.00;;;;;;5036882;28;20037;-84
2023/03/07 08:23:07;;;;;;;33.15;20.65;;;11.70;1.00;;;;;;5033071;28;20057;-82
2023/03/07 08:25:35;;;;;;;29.83;19.65;;;11.90;99.90;;;;;;5035127;28;20041;-83
2023/03/07 08:28:04;;;;;;;32.63;20.27;;;11.80;99.90;;;;;;5036429;28;20033;-82
2023/03/07 08:30:34;;;;;;;32.42;19.30;;;12.10;99.90;;;;;;5038226;28;20152;-83
2023/03/07 08:33:03;;;;;;;27.63;19.02;;;12.70;99.90;;;;;;5037708;28;20402;-83
2023/03/07 08:35:35;;;;;;;29.95;19.40;;;13.10;99.90;;;;;;5039908;28;20052;-84
2023/03/07 08:38:04;;;;;;;34.17;19.00;;;13.50;99.90;;;;;;5039942;28;20397;-83
2023/03/07 08:40:36;;;;;;;32.28;19.85;;;13.60;99.90;;;;;;5034549;28;20083;-83
2023/03/07 08:43:04;;;;;;;38.38;25.33;;;13.70;99.90;;;;;;5036993;28;20095;-82
2023/03/07 08:45:34;;;;;;;35.17;23.63;;;13.80;99.90;;;;;;5040121;28;20049;-82
2023/03/07 08:48:03;;;;;;;29.63;19.63;;;13.80;99.90;;;;;;5034248;28;20049;-82
2023/03/07 08:50:32;;;;;;;30.42;18.77;;;13.90;99.90;;;;;;5041517;28;20064;-81
2023/03/07 08:53:02;;;;;;;28.83;18.80;;;13.90;99.90;;;;;;5038805;28;20049;-81
2023/03/07 08:55:30;;;;;;;21.80;14.43;;;14.20;99.90;;;;;;5038101;28;20046;-81
2023/03/07 08:57:57;;;;;;;28.02;16.45;;;14.50;99.90;;;;;;5035365;28;20045;-80
2023/03/07 09:00:26;;;;;;;35.25;20.05;;;14.80;99.90;;;;;;5033553;28;20158;-81
2023/03/07 09:02:57;;;;;;;29.52;17.83;;;14.80;99.90;;;;;;5036047;28;20037;-80
2023/03/07 09:05:24;;;;;;;35.28;19.25;;;14.90;99.90;;;;;;5044710;28;20068;-80
2023/03/07 09:07:52;;;;;;;32.20;21.05;;;14.90;99.90;;;;;;5033142;28;20072;-80
2023/03/07 09:10:21;;;;;;;29.40;20.27;;;14.80;99.90;;;;;;5037862;28;20049;-80
2023/03/07 09:12:50;;;;;;;31.73;20.23;;;14.60;99.90;;;;;;5038899;28;20065;-81
2023/03/07 09:15:18;;;;;;;33.53;21.30;;;14.60;99.90;;;;;;5038481;28;20509;-81
2023/03/07 09:17:45;;;;;;;32.92;20.25;;;14.90;99.90;;;;;;5036522;28;20042;-79
2023/03/07 09:20:15;;;;;;;30.48;19.63;;;15.10;99.90;;;;;;5035759;28;20536;-81
2023/03/07 09:22:42;;;;;;;34.97;20.85;;;15.40;99.90;;;;;;5037468;28;20477;-79
2023/03/07 09:25:10;;;;;;;34.47;20.58;;;15.40;99.90;;;;;;5034713;28;20128;-81
2023/03/07 09:27:39;;;;;;;29.77;18.80;;;15.30;99.90;;;;;;5033221;28;20064;-81
2023/03/07 09:30:08;;;;;;;32.50;18.80;;;15.40;99.90;;;;;;5031305;28;20136;-80
2023/03/07 09:32:36;;;;;;;30.70;18.85;;;15.60;99.90;;;;;;5032700;28;20057;-78
2023/03/07 09:35:09;;;;;;;28.30;17.70;;;15.70;99.90;;;;;;5032254;28;20050;-81
2023/03/07 09:37:38;;;;;;;24.38;14.68;;;15.70;99.90;;;;;;5035021;28;20042;-83
2023/03/07 09:40:16;;;;;;;25.20;16.48;;;15.80;99.90;;;;;;5033383;28;20045;-81
2023/03/07 09:43:05;;;;;;;28.10;17.10;;;15.80;99.90;;;;;;5033341;28;20053;-78
2023/03/07 09:45:44;;;;;;;25.75;16.88;;;15.80;99.90;;;;;;5029976;28;20052;-80
2023/03/07 09:48:44;;;;;;;30.45;18.42;;;15.60;99.90;;;;;;5039982;28;20132;-78
2023/03/07 09:51:38;;;;;;;35.50;20.67;;;15.40;99.90;;;;;;5027735;28;20085;-80
2023/03/07 09:54:12;;;;;;;36.28;22.58;;;15.40;99.90;;;;;;5034100;28;20042;-77
2023/03/07 09:56:50;;;;;;;33.83;19.75;;;15.50;99.90;;;;;;5030704;28;20599;-79
2023/03/07 09:59:47;;;;;;;30.33;19.10;;;15.50;99.90;;;;;;5038090;28;20065;-87
2023/03/07 10:02:20;;;;;;;26.35;16.52;;;15.40;99.90;;;;;;5036828;28;20046;-80
2023/03/07 10:04:54;;;;;;;26.88;17.13;;;15.40;99.90;;;;;;5032815;28;20049;-78
2023/03/07 10:07:26;;;;;;;26.77;17.20;;;15.70;99.90;;;;;;5030533;28;20076;-78
2023/03/07 10:09:59;;;;;;;32.25;20.45;;;15.90;99.90;;;;;;5031887;28;20051;-77
2023/03/07 10:13:14;;;;;;;26.83;17.65;;;16.00;99.90;;;;;;5029705;28;20045;-81
2023/03/07 10:15:50;;;;;;;24.30;13.50;;;16.10;99.90;;;;;;5027745;28;20136;-78
2023/03/07 10:18:45;;;;;;;24.17;16.20;;;16.10;99.90;;;;;;5031091;28;20131;-77
2023/03/07 10:21:21;;;;;;;24.55;13.63;;;16.10;99.90;;;;;;5026074;28;20056;-76
2023/03/07 10:24:13;;;;;;;26.67;14.65;;;16.00;99.90;;;;;;5030657;28;20507;-76
2023/03/07 10:26:48;;;;;;;27.17;14.52;;;15.80;99.90;;;;;;5034265;28;20048;-78
2023/03/07 10:29:24;;;;;;;23.80;14.00;;;15.70;99.90;;;;;;5035818;28;20493;-76
2023/03/07 10:31:55;;;;;;;;;;;15.50;99.90;;;;;;5031752;28;20104;-77
2023/03/07 10:34:27;;;;;;;18.73;10.27;;;15.70;99.90;;;;;;5027969;28;19948;-76
2023/03/07 10:36:58;;;;;;;19.05;11.25;;;15.90;99.90;;;;;;5020512;28;20085;-78
2023/03/07 10:39:31;;;;;;;20.40;11.32;;;15.90;99.90;;;;;;5030736;28;20109;-76
2023/03/07 10:41:58;;;;;;;20.08;10.75;;;15.70;99.90;;;;;;5030609;28;20050;-77
2023/03/07 10:44:30;;;;;;;16.90;11.85;;;15.50;99.90;;;;;;5034194;28;20049;-76
2023/03/07 10:46:59;;;;;;;23.05;14.20;;;15.50;99.90;;;;;;5036878;28;20033;-77
2023/03/07 10:49:30;;;;;;;22.48;12.95;;;15.50;99.90;;;;;;5031946;28;20042;-78
2023/03/07 10:52:01;;;;;;;25.58;15.27;;;15.20;99.90;;;;;;5029637;28;20481;-80
2023/03/07 10:54:31;;;;;;;21.23;12.32;;;15.10;99.90;;;;;;5029820;28;20033;-78
2023/03/07 10:57:07;;;;;;;24.77;13.35;;;15.10;99.90;;;;;;5031281;28;20063;-77
2023/03/07 10:59:37;;;;;;;22.92;13.15;;;15.10;99.90;;;;;;5030940;28;20045;-78
2023/03/07 11:02:29;;;;;;;18.50;11.57;;;15.10;99.90;;;;;;5033362;28;20034;-79
2023/03/07 11:04:58;;;;;;;18.55;9.43;;;15.20;99.90;;;;;;5042497;28;20512;-77
2023/03/07 11:07:28;;;;;;;17.92;11.20;;;15.20;99.90;;;;;;5033070;28;20044;-79
2023/03/07 11:09:56;;;;;;;25.67;12.80;;;15.30;99.90;;;;;;5032731;28;20152;-78
2023/03/07 11:12:25;;;;;;;19.55;12.48;;;15.40;99.90;;;;;;5031537;28;20052;-79
2023/03/07 11:14:54;;;;;;;114.75;22.10;;;15.50;99.90;;;;;;5030559;28;20048;-79
2023/03/07 11:17:25;;;;;;;20.83;9.77;;;15.60;99.90;;;;;;5032844;28;20033;-78
2023/03/07 11:19:54;;;;;;;19.83;9.88;;;15.60;99.90;;;;;;5036319;28;20045;-78
2023/03/07 11:22:28;;;;;;;24.50;9.95;;;15.60;99.90;;;;;;5030056;28;20072;-77
2023/03/07 11:25:04;;;;;;;19.67;11.68;;;15.70;99.90;;;;;;5029016;28;20084;-78
2023/03/07 11:27:36;;;;;;;;;;;15.80;99.90;;;;;;5028528;28;20420;-76
2023/03/07 11:30:18;;;;;;;21.50;7.82;;;15.90;99.90;;;;;;5029434;28;19968;-78
2023/03/07 11:32:57;;;;;;;10.50;5.43;;;16.20;99.90;;;;;;5029780;28;20033;-75
2023/03/07 11:35:35;;;;;;;15.60;7.53;;;16.20;99.90;;;;;;5032264;28;20500;-78
2023/03/07 11:38:09;;;;;;;8.85;5.25;;;16.50;99.90;;;;;;5032940;28;20034;-78
2023/03/07 11:40:43;;;;;;;8.23;4.82;;;16.50;99.90;;;;;;5032732;28;20477;-77
2023/03/07 11:43:20;;;;;;;9.07;6.07;;;16.50;99.90;;;;;;5033419;28;20052;-77
2023/03/07 11:45:57;;;;;;;11.10;6.15;;;16.90;99.90;;;;;;5038533;28;20057;-77
2023/03/07 11:48:42;;;;;;;11.63;7.22;;;17.20;99.90;;;;;;5034945;28;20042;-78
2023/03/07 11:51:28;;;;;;;11.40;6.27;;;17.40;99.90;;;;;;5048330;28;20049;-77
2023/03/07 11:54:03;;;;;;;9.50;5.53;;;17.20;99.90;;;;;;5033856;28;20294;-77
2023/03/07 11:56:36;;;;;;;9.10;4.13;;;17.20;99.90;;;;;;5031087;28;20049;-78
2023/03/07 11:59:52;;;;;;;11.00;5.47;;;17.20;99.90;;;;;;5035791;28;20049;-78
2023/03/07 12:02:47;;;;;;;12.65;5.70;;;17.20;99.90;;;;;;4989111;28;20050;-77
2023/03/07 12:05:36;;;;;;;11.02;4.80;;;17.20;99.90;;;;;;5033697;28;20132;-78
2023/03/07 12:08:28;;;;;;;12.38;5.65;;;17.20;99.90;;;;;;5033752;28;20424;-77
2023/03/07 12:11:05;;;;;;;12.02;6.38;;;17.20;99.90;;;;;;5032287;28;20460;-79
2023/03/07 12:13:40;;;;;;;10.43;6.82;;;17.10;99.90;;;;;;5033788;28;20099;-78
2023/03/07 12:16:19;;;;;;;13.70;7.18;;;17.00;99.90;;;;;;5032653;28;20513;-78
2023/03/07 12:19:16;;;;;;;12.52;6.60;;;16.90;99.90;;;;;;5031591;28;20049;-76
2023/03/07 12:22:10;;;;;;;12.65;7.00;;;16.80;99.90;;;;;;5026956;28;20123;-76
2023/03/07 12:24:44;;;;;;;11.30;6.88;;;16.80;99.90;;;;;;5030302;28;20038;-78
2023/03/07 12:27:18;;;;;;;11.25;6.55;;;16.70;99.90;;;;;;5031218;28;20037;-77
2023/03/07 12:29:50;;;;;;;14.88;7.32;;;16.70;99.90;;;;;;5032047;28;20481;-78
2023/03/07 12:32:23;;;;;;;13.50;7.00;;;16.80;99.90;;;;;;5032008;28;20045;-77
2023/03/07 12:34:55;;;;;;;11.27;6.00;;;17.00;99.90;;;;;;5031574;28;20049;-76
2023/03/07 12:37:29;;;;;;;14.68;5.97;;;17.20;99.90;;;;;;5029251;28;20049;-78
2023/03/07 12:40:02;;;;;;;15.88;9.57;;;17.40;99.90;;;;;;5032977;28;20040;-77
2023/03/07 12:42:36;;;;;;;12.82;7.13;;;17.50;99.90;;;;;;5033512;28;20062;-78
2023/03/07 12:45:11;;;;;;;9.03;6.07;;;17.60;99.90;;;;;;5032287;28;20049;-79
2023/03/07 12:47:57;;;;;;;14.13;5.40;;;17.60;99.90;;;;;;5031734;28;20304;-78
2023/03/07 12:50:30;;;;;;;18.20;10.55;;;17.70;99.90;;;;;;5031315;28;20551;-79
2023/03/07 12:53:02;;;;;;;19.33;11.73;;;17.70;99.90;;;;;;5032701;28;20033;-77
2023/03/07 12:55:36;;;;;;;15.23;8.60;;;17.50;99.90;;;;;;5032230;28;20067;-77
2023/03/07 12:58:11;;;;;;;9.93;6.57;;;17.40;99.90;;;;;;5030890;28;20594;-77